Flight Track Log - Related Links

Times and Time Zones

All times are in EDT time to prevent confusion due to time zone crossing. See the AWE1693 flight status page for this flight to view local times or setup timezone preferences in your user account.

Time Position Orientation Groundspeed Altitude Reporting Facility
EDT Latitude Longitude Course Direction KTS MPH feet Rate Location/Type
Sat 09:22:14 AM 38.8167 -77.0333 201° Southwest 154 177 1,800  Level Potomac TRACON
Sat 09:23:14 AM 38.7667 -77.0333 180° South 215 247 4,000 2,211 Climbing Potomac TRACON
Sat 09:24:00 AM 38.6308 -77.2696 222° Southwest  Level FlightAware Approximate
Sat 09:24:08 AM 38.7500 -77.1000 252° West 259 298 6,000  Level Potomac TRACON
Sat 09:25:00 AM 38.5570 -77.3558 222° Southwest  Level FlightAware Approximate
Sat 09:25:14 AM 38.7333 -77.2167 260° West 286 329 9,100  Level Potomac TRACON
Sat 09:26:00 AM 38.4855 -77.4449 225° Southwest  Level FlightAware Approximate
Sat 09:26:14 AM 38.6833 -77.3000 232° Southwest 315 362 11,000  Level Potomac TRACON
Sat 09:27:00 AM 38.4145 -77.5344 201° Southwest  Level FlightAware Approximate
Sat 09:27:08 AM 38.6000 -77.3667 212° Southwest 358 412 12,000  Level Potomac TRACON
Sat 09:27:32 AM 38.5789 -77.3922 223° Southwest 358 412 12,900 2,357 Climbing Washington Center
Sat 09:28:32 AM 38.4983 -77.4700 217° Southwest 375 432 15,300 2,319 Climbing Washington Center
Sat 09:29:31 AM 38.4158 -77.5500 217° Southwest 381 438 17,500 1,950 Climbing Washington Center
Sat 09:30:32 AM 38.3433 -77.6514 228° Southwest 381 438 19,200 1,820 Climbing Washington Center
Sat 09:31:33 AM 38.2747 -77.7578 231° Southwest 387 445 21,200 1,785 Climbing Washington Center
Sat 09:32:33 AM 38.2017 -77.8694 230° Southwest 400 460 22,800 1,576 Climbing Washington Center
Sat 09:33:31 AM 38.1308 -77.9781 230° Southwest 410 472 24,300 1,424 Climbing Washington Center
Sat 09:34:31 AM 38.0533 -78.0944 230° Southwest 420 483 25,600 843 Climbing Washington Center
Sat 09:35:32 AM 37.9800 -78.2106 231° Southwest 425 489 26,000 197 Climbing Washington Center
Sat 09:36:33 AM 37.9067 -78.3131 228° Southwest 430 495 26,000 252 Level Washington Center
Sat 09:37:31 AM 37.8269 -78.4286 229° Southwest 435 501 26,500 1,017 Climbing Washington Center
Sat 09:38:31 AM 37.7450 -78.5436 228° Southwest 440 506 28,000 744 Climbing Washington Center
Sat 09:39:32 AM 37.6647 -78.6586 229° Southwest 440 506 28,000  Level Washington Center
Sat 09:40:33 AM 37.5717 -78.7886 228° Southwest 454 522 28,000  Level Washington Center
Sat 09:41:31 AM 37.4892 -78.9053 228° Southwest 454 522 28,000  Level Washington Center
Sat 09:42:32 AM 37.4089 -79.0197 229° Southwest 454 522 28,000  Level Washington Center
Sat 09:43:33 AM 37.3286 -79.1283 227° Southwest 449 517 28,000 -99 Level Washington Center
Sat 09:44:33 AM 37.2503 -79.2369 228° Southwest 437 503 27,800 -559 Descending Washington Center
Sat 09:45:31 AM 37.1644 -79.3111 215° Southwest 419 482 26,900 -908 Descending Washington Center
Sat 09:46:32 AM 37.0703 -79.3897 214° Southwest 419 482 26,000 -443 Descending Washington Center
Sat 09:47:33 AM 36.9739 -79.4681 213° Southwest 419 482 26,000  Level Washington Center
Sat 09:48:32 AM 36.8772 -79.5464 213° Southwest 419 482 26,000  Level Washington Center
Sat 09:49:33 AM 36.7744 -79.6319 214° Southwest 413 475 26,000  Level Washington Center
Sat 09:50:31 AM 36.6800 -79.7100 214° Southwest 413 475 26,000 -621 Level Washington Center
Sat 09:52:56 AM 36.4450 -79.8964 213° Southwest 433 498 23,900 -995 Descending Atlanta Center
Sat 09:53:56 AM 36.3497 -79.9736 213° Southwest 423 487 22,600 -950 Descending Atlanta Center
Sat 09:54:56 AM 36.2542 -80.0531 214° Southwest 417 480 22,000 -500 Descending Atlanta Center
Sat 09:55:56 AM 36.1608 -80.1347 215° Southwest 417 480 21,600 -2,100 Descending Atlanta Center
Sat 09:56:56 AM 36.0633 -80.2167 214° Southwest 407 468 17,800 -2,850 Descending Atlanta Center
Sat 09:57:56 AM 35.9800 -80.2872 214° Southwest 394 453 15,900 -1,912 Descending Atlanta Center
Sat 09:58:49 AM 35.9322 -80.3614 232° Southwest 300 345 14,200 -1,688 Descending Atlanta Center
Sat 09:59:32 AM 35.9008 -80.4242 238° Southwest 292 336 13,200 -1,075 Descending Atlanta Center
Sat 09:59:56 AM 35.8803 -80.4381 209° Southwest 308 354 13,000 -164 Descending Atlanta Center
Sat 10:00:45 AM 35.8081 -80.4667 198° South 293 337 13,000 -818 Level Atlanta Center
Sat 10:01:46 AM 35.7342 -80.5033 202° Southwest 282 325 11,500 -1,034 Descending Atlanta Center
Sat 10:02:41 AM 35.6814 -80.5592 221° Southwest 280 322 11,000 -429 Descending Atlanta Center
Sat 10:02:56 AM 35.6756 -80.5722 241° Southwest 276 318 11,000 -1,040 Level Atlanta Center
Sat 10:03:56 AM 35.6425 -80.6606 245° Southwest 282 325 9,700 -1,514 Descending Atlanta Center
Sat 10:04:43 AM 35.5961 -80.7186 226° Southwest 277 319 8,300 -1,667 Descending Atlanta Center
Sat 10:05:44 AM 35.5397 -80.7897 226° Southwest 271 312 6,700 -1,388 Descending Atlanta Center
Sat 10:06:44 AM 35.4892 -80.8531 226° Southwest 259 298 5,500 -942 Descending Atlanta Center
Sat 10:07:45 AM 35.4678 -80.9150 247° West 192 221 4,800 -738 Descending Atlanta Center
Sat 10:08:46 AM 35.4267 -80.9394 206° Southwest 151 174 4,000 -541 Descending Atlanta Center
Sat 10:09:47 AM 35.3753 -80.9644 202° Southwest 171 197 3,700 -590 Descending Atlanta Center
Sat 10:10:48 AM 35.3294 -80.9764 192° South 184 212 2,800 -885 Descending Atlanta Center

Login

Don't have an account? Register now (free) for customized features, flight alerts, and more!